Skip Navigation LinksHome page > Tools > METAR decoder Skip Navigation Links

METAR decoder

Settings

METAR

Chicago O'Hare Intl, Chicago

For information only: do not use for flight planning or navigation.
Latest weather
Observation time Wednesday, August 12, 2020 12:51 PM CDT
Local time Wednesday, August 12, 2020 1:39 PM CDT
Flight conditions Visual Meteorological Conditions
Winds
Wind direction East (100°)
Wind speed 7 mph
Visibility 10 mi.
Sky condition
Ceiling unlimited
Cloud layer few clouds 25,000 ft.
Temperature 84°F
Dewpoint 52°F
Altimeter 30.11 in.Hg
Pressure change last 3 hours0.00 in.Hg
Pressure rising, then falling
Derived measurements
Relative humidity 33%
Heat index 84°F
Density altitude 2239 ft.
Sea-level pressure 30.09 in.Hg
Climate data
Temperature minimum, last 6 hours 66°F
Temperature maximum, last 6 hours 84°F
Remarks
Automated weather observing station with precipitation discriminator.
METAR KORD 121751Z 10006KT 10SM FEW250 29/11 A3011 RMK AO2 SLP190 T02890111 10289 20189 50000

InnerDrive.Weather 4.0.6770.0 Release CLR 4.0.30319.42000
Copyright ©2018 Inner Drive Technology. All rights reserved. Portions Copyright ©1986-2018 David Braverman.

Find weather

Site navigation


Skip Navigation Links

Place info

Page info

PayPal - The safer, easier way to pay online!

Return home.

Copyright ©2020 Inner Drive Technology. Purveyors of fine, hand-crafted computer software. Page printed 2020-08-12T18:39:46 UTC.